Selkirk, NY (12158)

6:53 PM EDT on June 02, 2015 (GMT -0400)
Elm Estates | | Change Station
CLOSE
Current Station
Personal Weather Station
Location: Selkirk, NY
Elevation: 213 ft
Nearby Weather Stations

Elev 213 ft 42.59 °N, 73.84 °W | Updated 14 seconds ago

Overcast
Overcast
60.3 °F
Feels Like 60.3 °F
N
0.0
Wind Variable Wind from WNW
Gusts 0.0 mph

Today
High -- | Low -- °F
--% Chance of Precip.
Yesterday
High -- | Low -- °F
Precip. -- in
5:20 AM 8:26 PM
Full, 100% visible
Pressure 30.14 in
Visibility 10.0 miles
Clouds Mostly Cloudy 2900 ft
Mostly Cloudy 3600 ft
Mostly Cloudy 21000 ft
Overcast 25000 ft
Dew Point 53 °F
Humidity 76%
Rainfall 0.00 in
Snow Depth Not available.
UV 1.0 out of 12
Pollen 5.70 out of 12
Air Quality Not available.
Flu Activity Sporadic
METAR KALB 022151Z 00000KT 10SM BKN029 BKN036 BKN210 OVC250 17/09 A3013 RMK AO2 SLP204 T01670089

More Conditions Fewer Conditions

Pressure 30.14 in
Visibility 10.0 miles
Clouds Mostly Cloudy 2900 ft
Mostly Cloudy 3600 ft
Mostly Cloudy 21000 ft
Overcast 25000 ft
Dew Point 53 °F
Humidity 76%
Rainfall 0.00 in
Snow Depth Not available.
UV 1.0 out of 12
Pollen 5.70 out of 12
Air Quality Not available.
Flu Activity Sporadic
METAR KALB 022151Z 00000KT 10SM BKN029 BKN036 BKN210 OVC250 17/09 A3013 RMK AO2 SLP204 T01670089

More Conditions Fewer Conditions

10-Day Weather Forecast

×

Almanac

Astronomy

Jun. 02, 2015 Rise Set
Actual Time
Civil Twilight
Nautical Twilight
Astronomical Twilight
Moon
Length of Visible Light
Length of Day
Tomorrow will be .
, % of the Moon is Illuminated

Today's Extremes

State Highs State Lows

Community

WunderPhotos

Upload Photos

1,826,050 photos uploaded!

WunderBlogs® & News

Nearby

Air Quality

  Air Quality AQ Index Pollutant
Not available.

Snow Depth

Station Depth Elevation

Earthquake Activity

City Distance Mag. Time & Date
Minimum magnitude displayed is 2.5.

Coastal Water Temperatures

Place Temperature

Stations

Nearby Weather Stations

Station Location Temp. Windchill Dew Point Humidity Wind Precip. Elev Updated Type